Schedule Details


Flight Number: CTN663
Departure: Cilipi (LDDU) at 06:50
Arrival: Franjo Tudman (LDZA) at 07:45
Route: MADOS L187 VRANA UL187 KOMAR L187 TEBLI

Weather Information
LDDU 112230Z 12014KT 9999 -RA NSC 19/10 Q1010
LDZA 112230Z 25014KT CAVOK 19/10 Q1007 BECMG 24008KT
Schedule Frequency

Route Map